sensor_id;sensor_type;location;lat;lon;timestamp;P1;durP1;ratioP1;P2;durP2;ratioP2
26391;SDS011;14572;43.120;1.178;2022-11-21T00:01:36;9.73;;;1.83;;
26391;SDS011;14572;43.120;1.178;2022-11-21T00:04:03;8.98;;;2.55;;
26391;SDS011;14572;43.120;1.178;2022-11-21T00:06:31;15.45;;;3.28;;
26391;SDS011;14572;43.120;1.178;2022-11-21T00:08:58;5.57;;;2.80;;
26391;SDS011;14572;43.120;1.178;2022-11-21T00:11:25;7.97;;;3.50;;
26391;SDS011;14572;43.120;1.178;2022-11-21T00:13:52;9.35;;;3.33;;
26391;SDS011;14572;43.120;1.178;2022-11-21T00:16:21;5.93;;;2.50;;
26391;SDS011;14572;43.120;1.178;2022-11-21T00:18:48;15.70;;;3.15;;
26391;SDS011;14572;43.120;1.178;2022-11-21T00:21:15;9.02;;;2.45;;
26391;SDS011;14572;43.120;1.178;2022-11-21T00:23:43;13.25;;;2.35;;
26391;SDS011;14572;43.120;1.178;2022-11-21T00:26:11;3.78;;;1.52;;
26391;SDS011;14572;43.120;1.178;2022-11-21T00:28:39;11.00;;;3.15;;
26391;SDS011;14572;43.120;1.178;2022-11-21T00:31:06;5.28;;;2.90;;
26391;SDS011;14572;43.120;1.178;2022-11-21T00:33:34;7.40;;;2.80;;
26391;SDS011;14572;43.120;1.178;2022-11-21T00:36:06;7.07;;;2.72;;
26391;SDS011;14572;43.120;1.178;2022-11-21T00:38:33;7.95;;;2.05;;
26391;SDS011;14572;43.120;1.178;2022-11-21T00:41:01;7.15;;;1.77;;
26391;SDS011;14572;43.120;1.178;2022-11-21T00:43:27;5.43;;;1.67;;
26391;SDS011;14572;43.120;1.178;2022-11-21T00:45:55;7.28;;;1.42;;
26391;SDS011;14572;43.120;1.178;2022-11-21T00:48:23;9.48;;;1.63;;
26391;SDS011;14572;43.120;1.178;2022-11-21T00:50:52;8.05;;;1.40;;
26391;SDS011;14572;43.120;1.178;2022-11-21T00:53:18;8.65;;;1.20;;
26391;SDS011;14572;43.120;1.178;2022-11-21T00:55:45;4.38;;;1.10;;
26391;SDS011;14572;43.120;1.178;2022-11-21T00:58:12;4.03;;;1.20;;
26391;SDS011;14572;43.120;1.178;2022-11-21T01:00:40;11.20;;;1.67;;
26391;SDS011;14572;43.120;1.178;2022-11-21T01:03:07;7.88;;;1.63;;
26391;SDS011;14572;43.120;1.178;2022-11-21T01:05:33;12.35;;;1.80;;
26391;SDS011;14572;43.120;1.178;2022-11-21T01:08:02;7.53;;;1.70;;
26391;SDS011;14572;43.120;1.178;2022-11-21T01:10:29;14.00;;;2.10;;
26391;SDS011;14572;43.120;1.178;2022-11-21T01:12:56;8.48;;;1.92;;
26391;SDS011;14572;43.120;1.178;2022-11-21T01:15:23;7.97;;;1.85;;
26391;SDS011;14572;43.120;1.178;2022-11-21T01:17:50;7.10;;;1.80;;
26391;SDS011;14572;43.120;1.178;2022-11-21T01:20:17;7.38;;;1.63;;
26391;SDS011;14572;43.120;1.178;2022-11-21T01:22:44;7.50;;;1.73;;
26391;SDS011;14572;43.120;1.178;2022-11-21T01:25:13;57.67;;;3.03;;
26391;SDS011;14572;43.120;1.178;2022-11-21T01:27:40;6.88;;;1.25;;
26391;SDS011;14572;43.120;1.178;2022-11-21T01:30:07;7.75;;;2.22;;
26391;SDS011;14572;43.120;1.178;2022-11-21T01:32:36;3.90;;;1.35;;
26391;SDS011;14572;43.120;1.178;2022-11-21T01:35:03;6.63;;;1.45;;
26391;SDS011;14572;43.120;1.178;2022-11-21T01:37:30;41.00;;;2.30;;
26391;SDS011;14572;43.120;1.178;2022-11-21T01:39:57;6.75;;;1.83;;
26391;SDS011;14572;43.120;1.178;2022-11-21T01:42:25;8.10;;;1.60;;
26391;SDS011;14572;43.120;1.178;2022-11-21T01:44:52;13.52;;;1.45;;
26391;SDS011;14572;43.120;1.178;2022-11-21T01:47:20;8.05;;;0.98;;
26391;SDS011;14572;43.120;1.178;2022-11-21T01:49:47;8.82;;;1.42;;
26391;SDS011;14572;43.120;1.178;2022-11-21T01:52:16;12.27;;;1.23;;
26391;SDS011;14572;43.120;1.178;2022-11-21T01:54:46;5.25;;;1.30;;
26391;SDS011;14572;43.120;1.178;2022-11-21T01:57:16;7.22;;;0.93;;
26391;SDS011;14572;43.120;1.178;2022-11-21T01:59:47;7.75;;;0.80;;
26391;SDS011;14572;43.120;1.178;2022-11-21T02:02:17;4.75;;;1.20;;
26391;SDS011;14572;43.120;1.178;2022-11-21T02:04:46;7.82;;;0.85;;
26391;SDS011;14572;43.120;1.178;2022-11-21T02:07:14;4.32;;;0.90;;
26391;SDS011;14572;43.120;1.178;2022-11-21T02:09:44;2.97;;;1.00;;
26391;SDS011;14572;43.120;1.178;2022-11-21T02:12:15;4.47;;;0.90;;
26391;SDS011;14572;43.120;1.178;2022-11-21T02:14:44;8.73;;;1.00;;
26391;SDS011;14572;43.120;1.178;2022-11-21T02:17:16;4.25;;;0.98;;
26391;SDS011;14572;43.120;1.178;2022-11-21T02:19:46;4.55;;;0.95;;
26391;SDS011;14572;43.120;1.178;2022-11-21T02:22:19;6.35;;;2.33;;
26391;SDS011;14572;43.120;1.178;2022-11-21T02:25:01;3.40;;;1.20;;
26391;SDS011;14572;43.120;1.178;2022-11-21T02:27:30;7.50;;;0.80;;
26391;SDS011;14572;43.120;1.178;2022-11-21T02:29:57;8.68;;;1.27;;
26391;SDS011;14572;43.120;1.178;2022-11-21T02:32:30;3.78;;;1.00;;
26391;SDS011;14572;43.120;1.178;2022-11-21T02:34:59;6.65;;;0.93;;
26391;SDS011;14572;43.120;1.178;2022-11-21T02:37:26;2.72;;;0.85;;
26391;SDS011;14572;43.120;1.178;2022-11-21T02:39:53;3.28;;;1.10;;
26391;SDS011;14572;43.120;1.178;2022-11-21T02:42:22;8.02;;;1.00;;
26391;SDS011;14572;43.120;1.178;2022-11-21T02:44:53;12.57;;;1.05;;
26391;SDS011;14572;43.120;1.178;2022-11-21T02:47:23;4.80;;;1.00;;
26391;SDS011;14572;43.120;1.178;2022-11-21T02:49:52;3.63;;;0.70;;
26391;SDS011;14572;43.120;1.178;2022-11-21T02:52:22;4.22;;;1.00;;
26391;SDS011;14572;43.120;1.178;2022-11-21T02:54:49;4.20;;;1.10;;
26391;SDS011;14572;43.120;1.178;2022-11-21T02:57:16;5.15;;;0.95;;
26391;SDS011;14572;43.120;1.178;2022-11-21T02:59:45;1.58;;;0.82;;
26391;SDS011;14572;43.120;1.178;2022-11-21T03:02:12;3.92;;;0.90;;
26391;SDS011;14572;43.120;1.178;2022-11-21T03:04:39;9.15;;;1.20;;
26391;SDS011;14572;43.120;1.178;2022-11-21T03:07:06;3.80;;;1.10;;
26391;SDS011;14572;43.120;1.178;2022-11-21T03:09:33;2.22;;;1.02;;
26391;SDS011;14572;43.120;1.178;2022-11-21T03:12:04;6.78;;;0.90;;
26391;SDS011;14572;43.120;1.178;2022-11-21T03:14:31;2.38;;;0.93;;
26391;SDS011;14572;43.120;1.178;2022-11-21T03:17:00;8.07;;;0.75;;
26391;SDS011;14572;43.120;1.178;2022-11-21T03:19:28;9.13;;;0.98;;
26391;SDS011;14572;43.120;1.178;2022-11-21T03:21:55;4.35;;;0.70;;
26391;SDS011;14572;43.120;1.178;2022-11-21T03:24:22;6.03;;;1.10;;
26391;SDS011;14572;43.120;1.178;2022-11-21T03:26:49;4.97;;;0.88;;
26391;SDS011;14572;43.120;1.178;2022-11-21T03:29:16;5.65;;;0.85;;
26391;SDS011;14572;43.120;1.178;2022-11-21T03:31:43;6.45;;;0.80;;
26391;SDS011;14572;43.120;1.178;2022-11-21T03:37:51;3.95;;;0.65;;
26391;SDS011;14572;43.120;1.178;2022-11-21T03:49:48;3.35;;;0.70;;
26391;SDS011;14572;43.120;1.178;2022-11-21T03:58:33;7.03;;;0.80;;
26391;SDS011;14572;43.120;1.178;2022-11-21T04:01:00;2.97;;;0.63;;
26391;SDS011;14572;43.120;1.178;2022-11-21T04:06:40;2.05;;;0.68;;
26391;SDS011;14572;43.120;1.178;2022-11-21T04:09:07;3.67;;;0.60;;
26391;SDS011;14572;43.120;1.178;2022-11-21T04:11:34;2.78;;;0.68;;
26391;SDS011;14572;43.120;1.178;2022-11-21T04:14:03;5.93;;;0.60;;
26391;SDS011;14572;43.120;1.178;2022-11-21T04:16:30;6.35;;;0.85;;
26391;SDS011;14572;43.120;1.178;2022-11-21T04:18:57;4.57;;;0.75;;
26391;SDS011;14572;43.120;1.178;2022-11-21T04:21:24;4.80;;;0.77;;
26391;SDS011;14572;43.120;1.178;2022-11-21T04:23:51;7.25;;;0.55;;
26391;SDS011;14572;43.120;1.178;2022-11-21T04:26:18;4.10;;;0.60;;
26391;SDS011;14572;43.120;1.178;2022-11-21T04:28:45;4.53;;;0.70;;
26391;SDS011;14572;43.120;1.178;2022-11-21T04:31:14;6.00;;;0.93;;
26391;SDS011;14572;43.120;1.178;2022-11-21T04:33:41;2.80;;;0.75;;
26391;SDS011;14572;43.120;1.178;2022-11-21T04:36:08;6.10;;;0.80;;
26391;SDS011;14572;43.120;1.178;2022-11-21T04:38:35;4.78;;;0.57;;
26391;SDS011;14572;43.120;1.178;2022-11-21T04:41:02;2.67;;;0.52;;
26391;SDS011;14572;43.120;1.178;2022-11-21T04:43:30;4.60;;;0.70;;
26391;SDS011;14572;43.120;1.178;2022-11-21T04:45:57;10.18;;;0.60;;
26391;SDS011;14572;43.120;1.178;2022-11-21T04:48:25;0.90;;;0.57;;
26391;SDS011;14572;43.120;1.178;2022-11-21T04:50:52;8.30;;;0.60;;
26391;SDS011;14572;43.120;1.178;2022-11-21T04:53:19;1.83;;;0.60;;
26391;SDS011;14572;43.120;1.178;2022-11-21T04:55:46;5.25;;;0.82;;
26391;SDS011;14572;43.120;1.178;2022-11-21T04:58:13;5.47;;;0.65;;
26391;SDS011;14572;43.120;1.178;2022-11-21T05:00:40;3.75;;;0.65;;
26391;SDS011;14572;43.120;1.178;2022-11-21T05:03:07;1.38;;;0.63;;
26391;SDS011;14572;43.120;1.178;2022-11-21T05:05:37;5.88;;;0.77;;
26391;SDS011;14572;43.120;1.178;2022-11-21T05:08:04;7.82;;;0.85;;
26391;SDS011;14572;43.120;1.178;2022-11-21T05:10:31;21.27;;;1.05;;
26391;SDS011;14572;43.120;1.178;2022-11-21T05:13:18;2.88;;;0.88;;
26391;SDS011;14572;43.120;1.178;2022-11-21T05:15:47;2.80;;;1.20;;
26391;SDS011;14572;43.120;1.178;2022-11-21T05:18:16;2.33;;;1.15;;
26391;SDS011;14572;43.120;1.178;2022-11-21T05:20:45;2.00;;;0.90;;
26391;SDS011;14572;43.120;1.178;2022-11-21T05:23:12;3.83;;;1.15;;
26391;SDS011;14572;43.120;1.178;2022-11-21T05:25:39;3.28;;;1.27;;
26391;SDS011;14572;43.120;1.178;2022-11-21T05:28:06;5.78;;;0.82;;
26391;SDS011;14572;43.120;1.178;2022-11-21T05:30:34;5.63;;;0.70;;
26391;SDS011;14572;43.120;1.178;2022-11-21T05:46:35;2.70;;;0.70;;
26391;SDS011;14572;43.120;1.178;2022-11-21T05:49:03;4.68;;;0.80;;
26391;SDS011;14572;43.120;1.178;2022-11-21T05:51:30;1.40;;;0.63;;
26391;SDS011;14572;43.120;1.178;2022-11-21T05:53:57;1.88;;;0.77;;
26391;SDS011;14572;43.120;1.178;2022-11-21T05:59:19;2.35;;;0.63;;
26391;SDS011;14572;43.120;1.178;2022-11-21T06:01:47;2.60;;;0.85;;
26391;SDS011;14572;43.120;1.178;2022-11-21T06:04:31;5.43;;;0.80;;
26391;SDS011;14572;43.120;1.178;2022-11-21T06:06:58;2.15;;;0.60;;
26391;SDS011;14572;43.120;1.178;2022-11-21T06:09:25;11.32;;;0.68;;
26391;SDS011;14572;43.120;1.178;2022-11-21T06:11:52;5.22;;;0.90;;
26391;SDS011;14572;43.120;1.178;2022-11-21T06:14:19;21.15;;;5.72;;
26391;SDS011;14572;43.120;1.178;2022-11-21T06:16:48;8.38;;;4.35;;
26391;SDS011;14572;43.120;1.178;2022-11-21T06:19:15;10.75;;;5.25;;
26391;SDS011;14572;43.120;1.178;2022-11-21T06:21:42;8.50;;;3.28;;
26391;SDS011;14572;43.120;1.178;2022-11-21T06:24:09;10.63;;;4.70;;
26391;SDS011;14572;43.120;1.178;2022-11-21T06:30:00;163.52;;;6.03;;
26391;SDS011;14572;43.120;1.178;2022-11-21T06:32:29;30.65;;;3.97;;
26391;SDS011;14572;43.120;1.178;2022-11-21T06:38:12;5.97;;;2.17;;
26391;SDS011;14572;43.120;1.178;2022-11-21T06:40:42;4.47;;;1.20;;
26391;SDS011;14572;43.120;1.178;2022-11-21T06:43:10;2.10;;;1.05;;
26391;SDS011;14572;43.120;1.178;2022-11-21T06:45:37;2.22;;;1.13;;
26391;SDS011;14572;43.120;1.178;2022-11-21T06:48:06;3.70;;;1.40;;
26391;SDS011;14572;43.120;1.178;2022-11-21T06:50:33;2.13;;;1.13;;
26391;SDS011;14572;43.120;1.178;2022-11-21T06:56:37;12.65;;;3.50;;
26391;SDS011;14572;43.120;1.178;2022-11-21T06:59:04;30.80;;;1.77;;
26391;SDS011;14572;43.120;1.178;2022-11-21T07:01:31;1.63;;;1.10;;
26391;SDS011;14572;43.120;1.178;2022-11-21T07:04:00;5.50;;;1.20;;
26391;SDS011;14572;43.120;1.178;2022-11-21T07:06:27;2.15;;;0.90;;
26391;SDS011;14572;43.120;1.178;2022-11-21T07:08:54;5.80;;;2.35;;
26391;SDS011;14572;43.120;1.178;2022-11-21T07:11:21;13.48;;;1.90;;
26391;SDS011;14572;43.120;1.178;2022-11-21T07:13:48;41.03;;;1.88;;
26391;SDS011;14572;43.120;1.178;2022-11-21T07:16:13;3.00;;;1.05;;
26391;SDS011;14572;43.120;1.178;2022-11-21T07:18:40;4.68;;;1.00;;
26391;SDS011;14572;43.120;1.178;2022-11-21T07:21:10;4.22;;;1.50;;
26391;SDS011;14572;43.120;1.178;2022-11-21T07:23:37;4.80;;;1.20;;
26391;SDS011;14572;43.120;1.178;2022-11-21T07:26:04;12.07;;;3.80;;
26391;SDS011;14572;43.120;1.178;2022-11-21T07:28:33;6.97;;;3.92;;
26391;SDS011;14572;43.120;1.178;2022-11-21T07:31:01;7.05;;;3.10;;
26391;SDS011;14572;43.120;1.178;2022-11-21T07:33:29;10.10;;;3.35;;
26391;SDS011;14572;43.120;1.178;2022-11-21T07:35:56;5.38;;;3.22;;
26391;SDS011;14572;43.120;1.178;2022-11-21T07:38:25;7.60;;;4.10;;
26391;SDS011;14572;43.120;1.178;2022-11-21T07:40:54;6.35;;;4.03;;
26391;SDS011;14572;43.120;1.178;2022-11-21T07:46:13;4.97;;;2.85;;
26391;SDS011;14572;43.120;1.178;2022-11-21T07:51:38;6.78;;;3.17;;
26391;SDS011;14572;43.120;1.178;2022-11-21T07:54:06;3.60;;;2.67;;
26391;SDS011;14572;43.120;1.178;2022-11-21T07:56:45;4.45;;;2.70;;
26391;SDS011;14572;43.120;1.178;2022-11-21T07:59:12;5.28;;;2.88;;
26391;SDS011;14572;43.120;1.178;2022-11-21T08:01:39;5.30;;;2.75;;
26391;SDS011;14572;43.120;1.178;2022-11-21T08:04:06;9.50;;;2.97;;
26391;SDS011;14572;43.120;1.178;2022-11-21T08:06:33;4.45;;;2.17;;
26391;SDS011;14572;43.120;1.178;2022-11-21T08:09:00;6.25;;;1.85;;
26391;SDS011;14572;43.120;1.178;2022-11-21T08:11:29;5.53;;;2.05;;
26391;SDS011;14572;43.120;1.178;2022-11-21T08:13:57;4.28;;;1.60;;
26391;SDS011;14572;43.120;1.178;2022-11-21T08:16:24;116.95;;;6.90;;
26391;SDS011;14572;43.120;1.178;2022-11-21T08:18:52;5.15;;;2.00;;
26391;SDS011;14572;43.120;1.178;2022-11-21T08:21:19;9.18;;;3.83;;
26391;SDS011;14572;43.120;1.178;2022-11-21T08:23:46;14.60;;;6.53;;
26391;SDS011;14572;43.120;1.178;2022-11-21T08:26:14;7.80;;;4.88;;
26391;SDS011;14572;43.120;1.178;2022-11-21T08:28:42;10.45;;;4.07;;
26391;SDS011;14572;43.120;1.178;2022-11-21T08:31:09;4.32;;;2.97;;
26391;SDS011;14572;43.120;1.178;2022-11-21T08:33:36;4.32;;;2.40;;
26391;SDS011;14572;43.120;1.178;2022-11-21T08:36:04;6.30;;;2.83;;
26391;SDS011;14572;43.120;1.178;2022-11-21T08:38:31;3.03;;;1.88;;
26391;SDS011;14572;43.120;1.178;2022-11-21T08:41:02;2.83;;;1.63;;
26391;SDS011;14572;43.120;1.178;2022-11-21T08:44:06;3.97;;;1.00;;
26391;SDS011;14572;43.120;1.178;2022-11-21T08:49:51;1.55;;;0.90;;
26391;SDS011;14572;43.120;1.178;2022-11-21T08:52:18;3.70;;;0.93;;
26391;SDS011;14572;43.120;1.178;2022-11-21T08:54:46;1.17;;;0.75;;
26391;SDS011;14572;43.120;1.178;2022-11-21T08:57:13;5.95;;;0.80;;
26391;SDS011;14572;43.120;1.178;2022-11-21T08:59:42;1.38;;;0.75;;
26391;SDS011;14572;43.120;1.178;2022-11-21T09:02:09;1.77;;;0.77;;
26391;SDS011;14572;43.120;1.178;2022-11-21T09:04:50;1.27;;;0.63;;
26391;SDS011;14572;43.120;1.178;2022-11-21T09:07:17;1.42;;;0.70;;
26391;SDS011;14572;43.120;1.178;2022-11-21T09:09:44;0.63;;;0.40;;
26391;SDS011;14572;43.120;1.178;2022-11-21T09:12:12;1.35;;;0.63;;
26391;SDS011;14572;43.120;1.178;2022-11-21T09:14:39;3.33;;;0.63;;
26391;SDS011;14572;43.120;1.178;2022-11-21T09:17:25;3.95;;;0.50;;
26391;SDS011;14572;43.120;1.178;2022-11-21T09:20:06;2.10;;;0.57;;
26391;SDS011;14572;43.120;1.178;2022-11-21T09:22:34;2.08;;;0.60;;
26391;SDS011;14572;43.120;1.178;2022-11-21T09:25:01;4.00;;;0.55;;
26391;SDS011;14572;43.120;1.178;2022-11-21T09:27:28;2.60;;;0.75;;
26391;SDS011;14572;43.120;1.178;2022-11-21T09:29:55;2.50;;;0.80;;
26391;SDS011;14572;43.120;1.178;2022-11-21T09:32:24;2.92;;;1.70;;
26391;SDS011;14572;43.120;1.178;2022-11-21T09:34:51;0.90;;;0.57;;
26391;SDS011;14572;43.120;1.178;2022-11-21T09:37:18;1.33;;;0.57;;
26391;SDS011;14572;43.120;1.178;2022-11-21T09:39:45;1.48;;;0.60;;
26391;SDS011;14572;43.120;1.178;2022-11-21T09:48:47;1.63;;;0.70;;
26391;SDS011;14572;43.120;1.178;2022-11-21T09:51:18;1.27;;;0.60;;
26391;SDS011;14572;43.120;1.178;2022-11-21T09:53:49;0.80;;;0.52;;
26391;SDS011;14572;43.120;1.178;2022-11-21T09:56:21;2.65;;;0.60;;
26391;SDS011;14572;43.120;1.178;2022-11-21T09:58:50;1.02;;;0.73;;
26391;SDS011;14572;43.120;1.178;2022-11-21T10:01:31;2.35;;;0.82;;
26391;SDS011;14572;43.120;1.178;2022-11-21T10:04:00;1.38;;;0.88;;
26391;SDS011;14572;43.120;1.178;2022-11-21T10:06:29;4.93;;;2.08;;
26391;SDS011;14572;43.120;1.178;2022-11-21T10:09:00;6.00;;;2.10;;
26391;SDS011;14572;43.120;1.178;2022-11-21T10:15:14;2.38;;;1.52;;
26391;SDS011;14572;43.120;1.178;2022-11-21T10:17:51;4.68;;;2.03;;
26391;SDS011;14572;43.120;1.178;2022-11-21T10:20:38;3.92;;;2.28;;
26391;SDS011;14572;43.120;1.178;2022-11-21T10:23:20;2.63;;;1.83;;
26391;SDS011;14572;43.120;1.178;2022-11-21T10:26:05;2.80;;;1.83;;
26391;SDS011;14572;43.120;1.178;2022-11-21T10:28:41;7.15;;;4.38;;
26391;SDS011;14572;43.120;1.178;2022-11-21T10:31:13;7.07;;;4.75;;
26391;SDS011;14572;43.120;1.178;2022-11-21T10:33:41;10.73;;;4.40;;
26391;SDS011;14572;43.120;1.178;2022-11-21T10:36:11;7.50;;;3.75;;
26391;SDS011;14572;43.120;1.178;2022-11-21T10:38:41;8.27;;;4.50;;
26391;SDS011;14572;43.120;1.178;2022-11-21T10:41:16;6.18;;;3.95;;
26391;SDS011;14572;43.120;1.178;2022-11-21T10:43:45;9.02;;;5.05;;
26391;SDS011;14572;43.120;1.178;2022-11-21T10:46:32;5.95;;;4.10;;
26391;SDS011;14572;43.120;1.178;2022-11-21T10:49:00;7.57;;;3.90;;
26391;SDS011;14572;43.120;1.178;2022-11-21T10:51:36;6.85;;;4.38;;
26391;SDS011;14572;43.120;1.178;2022-11-21T10:54:09;8.63;;;4.32;;
26391;SDS011;14572;43.120;1.178;2022-11-21T10:56:55;5.60;;;4.00;;
26391;SDS011;14572;43.120;1.178;2022-11-21T10:59:26;4.78;;;3.47;;
26391;SDS011;14572;43.120;1.178;2022-11-21T11:01:55;5.70;;;3.13;;
26391;SDS011;14572;43.120;1.178;2022-11-21T11:04:24;6.78;;;3.15;;
26391;SDS011;14572;43.120;1.178;2022-11-21T11:06:53;4.78;;;2.85;;
26391;SDS011;14572;43.120;1.178;2022-11-21T11:09:21;6.97;;;4.18;;
26391;SDS011;14572;43.120;1.178;2022-11-21T11:11:49;6.60;;;4.57;;
26391;SDS011;14572;43.120;1.178;2022-11-21T11:14:25;13.35;;;4.22;;
26391;SDS011;14572;43.120;1.178;2022-11-21T11:16:55;9.52;;;5.28;;
26391;SDS011;14572;43.120;1.178;2022-11-21T11:19:23;9.82;;;5.32;;
26391;SDS011;14572;43.120;1.178;2022-11-21T11:21:53;5.32;;;3.60;;
26391;SDS011;14572;43.120;1.178;2022-11-21T11:24:22;6.55;;;3.92;;
26391;SDS011;14572;43.120;1.178;2022-11-21T11:26:55;9.05;;;4.50;;
26391;SDS011;14572;43.120;1.178;2022-11-21T11:29:25;10.98;;;4.85;;
26391;SDS011;14572;43.120;1.178;2022-11-21T11:31:55;8.50;;;4.32;;
26391;SDS011;14572;43.120;1.178;2022-11-21T11:34:24;5.60;;;3.85;;
26391;SDS011;14572;43.120;1.178;2022-11-21T11:37:02;6.43;;;3.97;;
26391;SDS011;14572;43.120;1.178;2022-11-21T11:39:38;5.55;;;4.43;;
26391;SDS011;14572;43.120;1.178;2022-11-21T11:45:29;4.45;;;3.13;;
26391;SDS011;14572;43.120;1.178;2022-11-21T11:48:25;3.95;;;2.40;;
26391;SDS011;14572;43.120;1.178;2022-11-21T11:50:54;4.18;;;2.90;;
26391;SDS011;14572;43.120;1.178;2022-11-21T11:53:25;8.02;;;3.78;;
26391;SDS011;14572;43.120;1.178;2022-11-21T11:55:56;4.50;;;3.28;;
26391;SDS011;14572;43.120;1.178;2022-11-21T11:58:25;5.72;;;3.60;;
26391;SDS011;14572;43.120;1.178;2022-11-21T12:00:59;5.13;;;3.70;;
26391;SDS011;14572;43.120;1.178;2022-11-21T12:03:32;6.28;;;4.05;;
26391;SDS011;14572;43.120;1.178;2022-11-21T12:06:41;5.63;;;4.18;;
26391;SDS011;14572;43.120;1.178;2022-11-21T12:09:16;6.30;;;4.30;;
26391;SDS011;14572;43.120;1.178;2022-11-21T12:11:50;5.43;;;3.22;;
26391;SDS011;14572;43.120;1.178;2022-11-21T12:17:45;11.38;;;3.88;;
26391;SDS011;14572;43.120;1.178;2022-11-21T12:20:17;7.90;;;4.30;;
26391;SDS011;14572;43.120;1.178;2022-11-21T12:22:46;8.00;;;4.55;;
26391;SDS011;14572;43.120;1.178;2022-11-21T12:25:16;5.78;;;3.60;;
26391;SDS011;14572;43.120;1.178;2022-11-21T12:27:45;4.97;;;3.10;;
26391;SDS011;14572;43.120;1.178;2022-11-21T12:30:30;5.90;;;2.92;;
26391;SDS011;14572;43.120;1.178;2022-11-21T12:33:18;19.80;;;4.18;;
26391;SDS011;14572;43.120;1.178;2022-11-21T12:35:59;10.07;;;3.20;;
26391;SDS011;14572;43.120;1.178;2022-11-21T12:38:43;3.83;;;2.30;;
26391;SDS011;14572;43.120;1.178;2022-11-21T12:41:27;5.18;;;3.20;;
26391;SDS011;14572;43.120;1.178;2022-11-21T12:44:18;3.97;;;2.33;;
26391;SDS011;14572;43.120;1.178;2022-11-21T12:46:58;5.65;;;1.83;;
26391;SDS011;14572;43.120;1.178;2022-11-21T12:49:32;3.83;;;2.05;;
26391;SDS011;14572;43.120;1.178;2022-11-21T12:52:22;3.72;;;1.40;;
26391;SDS011;14572;43.120;1.178;2022-11-21T12:55:17;3.17;;;1.10;;
26391;SDS011;14572;43.120;1.178;2022-11-21T12:57:53;6.93;;;1.10;;
26391;SDS011;14572;43.120;1.178;2022-11-21T13:00:41;2.05;;;0.80;;
26391;SDS011;14572;43.120;1.178;2022-11-21T13:03:26;2.67;;;0.70;;
26391;SDS011;14572;43.120;1.178;2022-11-21T13:05:59;4.47;;;1.10;;
26391;SDS011;14572;43.120;1.178;2022-11-21T13:08:27;2.92;;;0.70;;
26391;SDS011;14572;43.120;1.178;2022-11-21T13:10:57;1.27;;;0.50;;
26391;SDS011;14572;43.120;1.178;2022-11-21T13:14:23;1.20;;;0.52;;
26391;SDS011;14572;43.120;1.178;2022-11-21T13:19:50;2.30;;;0.50;;
26391;SDS011;14572;43.120;1.178;2022-11-21T13:28:48;2.53;;;0.52;;
26391;SDS011;14572;43.120;1.178;2022-11-21T13:38:01;2.90;;;0.60;;
26391;SDS011;14572;43.120;1.178;2022-11-21T13:40:38;3.60;;;0.82;;
26391;SDS011;14572;43.120;1.178;2022-11-21T13:43:27;3.15;;;0.63;;
26391;SDS011;14572;43.120;1.178;2022-11-21T13:45:53;2.40;;;0.70;;
26391;SDS011;14572;43.120;1.178;2022-11-21T13:48:31;4.25;;;0.70;;
26391;SDS011;14572;43.120;1.178;2022-11-21T13:51:13;2.47;;;0.60;;
26391;SDS011;14572;43.120;1.178;2022-11-21T13:56:54;3.00;;;0.90;;
26391;SDS011;14572;43.120;1.178;2022-11-21T13:59:33;2.42;;;0.35;;
26391;SDS011;14572;43.120;1.178;2022-11-21T14:02:17;3.72;;;0.52;;
26391;SDS011;14572;43.120;1.178;2022-11-21T14:05:04;4.80;;;1.02;;
26391;SDS011;14572;43.120;1.178;2022-11-21T14:07:38;1.48;;;0.60;;
26391;SDS011;14572;43.120;1.178;2022-11-21T14:10:16;7.07;;;0.50;;
26391;SDS011;14572;43.120;1.178;2022-11-21T14:12:47;2.30;;;0.60;;
26391;SDS011;14572;43.120;1.178;2022-11-21T14:15:21;1.83;;;0.60;;
26391;SDS011;14572;43.120;1.178;2022-11-21T14:17:52;8.00;;;0.70;;
26391;SDS011;14572;43.120;1.178;2022-11-21T14:20:21;2.42;;;0.50;;
26391;SDS011;14572;43.120;1.178;2022-11-21T14:22:54;1.45;;;0.50;;
26391;SDS011;14572;43.120;1.178;2022-11-21T14:25:23;5.15;;;0.55;;
26391;SDS011;14572;43.120;1.178;2022-11-21T14:27:56;1.05;;;0.55;;
26391;SDS011;14572;43.120;1.178;2022-11-21T14:30:25;3.33;;;0.45;;
26391;SDS011;14572;43.120;1.178;2022-11-21T14:32:54;1.80;;;0.50;;
26391;SDS011;14572;43.120;1.178;2022-11-21T14:35:22;1.95;;;0.60;;
26391;SDS011;14572;43.120;1.178;2022-11-21T14:37:49;8.88;;;0.68;;
26391;SDS011;14572;43.120;1.178;2022-11-21T14:40:19;0.90;;;0.40;;
26391;SDS011;14572;43.120;1.178;2022-11-21T14:42:47;2.10;;;0.60;;
26391;SDS011;14572;43.120;1.178;2022-11-21T14:45:16;2.38;;;0.50;;
26391;SDS011;14572;43.120;1.178;2022-11-21T14:47:45;1.60;;;0.47;;
26391;SDS011;14572;43.120;1.178;2022-11-21T14:59:43;3.05;;;0.70;;
26391;SDS011;14572;43.120;1.178;2022-11-21T15:02:28;3.70;;;0.70;;
26391;SDS011;14572;43.120;1.178;2022-11-21T15:25:21;2.70;;;0.57;;
26391;SDS011;14572;43.120;1.178;2022-11-21T15:31:23;2.00;;;0.30;;
26391;SDS011;14572;43.120;1.178;2022-11-21T15:37:16;1.63;;;0.50;;
26391;SDS011;14572;43.120;1.178;2022-11-21T15:39:45;3.35;;;0.40;;
26391;SDS011;14572;43.120;1.178;2022-11-21T15:42:33;4.00;;;0.68;;
26391;SDS011;14572;43.120;1.178;2022-11-21T15:45:18;3.00;;;0.63;;
26391;SDS011;14572;43.120;1.178;2022-11-21T15:51:10;6.07;;;0.65;;
26391;SDS011;14572;43.120;1.178;2022-11-21T15:53:37;8.13;;;0.93;;
26391;SDS011;14572;43.120;1.178;2022-11-21T15:56:14;5.45;;;0.60;;
26391;SDS011;14572;43.120;1.178;2022-11-21T15:58:46;9.68;;;0.98;;
26391;SDS011;14572;43.120;1.178;2022-11-21T16:01:14;6.88;;;0.82;;
26391;SDS011;14572;43.120;1.178;2022-11-21T16:03:43;3.53;;;0.90;;
26391;SDS011;14572;43.120;1.178;2022-11-21T16:06:11;7.68;;;1.13;;
26391;SDS011;14572;43.120;1.178;2022-11-21T16:08:38;15.15;;;1.10;;
26391;SDS011;14572;43.120;1.178;2022-11-21T16:11:06;6.50;;;1.00;;
26391;SDS011;14572;43.120;1.178;2022-11-21T16:13:33;8.77;;;1.20;;
26391;SDS011;14572;43.120;1.178;2022-11-21T16:16:02;9.80;;;1.23;;
26391;SDS011;14572;43.120;1.178;2022-11-21T16:18:29;6.43;;;0.90;;
26391;SDS011;14572;43.120;1.178;2022-11-21T16:21:03;7.28;;;0.95;;
26391;SDS011;14572;43.120;1.178;2022-11-21T16:23:31;9.10;;;0.93;;
26391;SDS011;14572;43.120;1.178;2022-11-21T16:25:59;11.80;;;1.17;;
26391;SDS011;14572;43.120;1.178;2022-11-21T16:28:26;10.57;;;0.70;;
26391;SDS011;14572;43.120;1.178;2022-11-21T16:30:53;7.10;;;0.85;;
26391;SDS011;14572;43.120;1.178;2022-11-21T16:33:22;12.32;;;0.93;;
26391;SDS011;14572;43.120;1.178;2022-11-21T16:35:56;11.45;;;1.00;;
26391;SDS011;14572;43.120;1.178;2022-11-21T16:38:24;6.60;;;0.85;;
26391;SDS011;14572;43.120;1.178;2022-11-21T16:40:53;3.17;;;0.60;;
26391;SDS011;14572;43.120;1.178;2022-11-21T16:43:21;5.40;;;0.70;;
26391;SDS011;14572;43.120;1.178;2022-11-21T16:45:49;6.57;;;0.85;;
26391;SDS011;14572;43.120;1.178;2022-11-21T16:48:16;5.22;;;0.75;;
26391;SDS011;14572;43.120;1.178;2022-11-21T16:50:46;8.68;;;1.52;;
26391;SDS011;14572;43.120;1.178;2022-11-21T16:53:13;7.03;;;0.90;;
26391;SDS011;14572;43.120;1.178;2022-11-21T16:55:40;10.20;;;0.90;;
26391;SDS011;14572;43.120;1.178;2022-11-21T16:58:08;9.32;;;0.75;;
26391;SDS011;14572;43.120;1.178;2022-11-21T17:00:35;6.95;;;0.80;;
26391;SDS011;14572;43.120;1.178;2022-11-21T17:03:03;6.97;;;1.10;;
26391;SDS011;14572;43.120;1.178;2022-11-21T17:05:30;8.90;;;1.25;;
26391;SDS011;14572;43.120;1.178;2022-11-21T17:07:58;8.70;;;1.13;;
26391;SDS011;14572;43.120;1.178;2022-11-21T17:10:26;6.30;;;1.02;;
26391;SDS011;14572;43.120;1.178;2022-11-21T17:12:54;9.38;;;0.90;;
26391;SDS011;14572;43.120;1.178;2022-11-21T17:15:21;9.13;;;0.93;;
26391;SDS011;14572;43.120;1.178;2022-11-21T17:17:48;9.93;;;1.38;;
26391;SDS011;14572;43.120;1.178;2022-11-21T17:20:15;8.65;;;1.30;;